DLH648 UAAA-UACC
Flight info
| Callsign | DLH648 |
|---|---|
| Flight time | 1h 24m |
| Altitude | 40000 |
| Route | ETEDA W333 BANOS |
| Aircraft | A343/H-SDE2E3FGHIJ4J5M1RWXY/LB1D1 |
Departure
| Time | 2026-04-25 09:56 |
|---|---|
| Airport | Almaty International Airport (UAAA) |
Arrival
| Time | 2026-04-25 11:21 |
|---|---|
| Airport | Nursultan Nazarbayev International Airport (UACC) |
| Time | Latitude | Longitude | Altitude | Speed | Heading |
|---|---|---|---|---|---|
| 2026-04-25 09:23 | 43.35045 | 77.01258 | 2230 ft | 0 kts | 245° |
| 2026-04-25 09:44 | 43.35046 | 77.01263 | 2235 ft | 3 kts | 245° |
| 2026-04-25 09:44 | 43.35058 | 77.01295 | 2234 ft | 4 kts | 239° |
| 2026-04-25 09:44 | 43.35074 | 77.01326 | 2246 ft | 4 kts | 230° |
| 2026-04-25 09:44 | 43.35093 | 77.01351 | 2224 ft | 4 kts | 209° |
| 2026-04-25 09:45 | 43.35115 | 77.01360 | 2227 ft | 3 kts | 158° |
| 2026-04-25 09:45 | 43.35121 | 77.01356 | 2224 ft | 0 kts | 156° |
| 2026-04-25 09:48 | 43.35102 | 77.01368 | 2224 ft | 8 kts | 156° |
| 2026-04-25 09:48 | 43.35048 | 77.01401 | 2226 ft | 9 kts | 155° |
| 2026-04-25 09:48 | 43.34989 | 77.01437 | 2226 ft | 10 kts | 156° |
| 2026-04-25 09:49 | 43.34919 | 77.01480 | 2227 ft | 11 kts | 156° |
| 2026-04-25 09:49 | 43.34840 | 77.01495 | 2225 ft | 11 kts | 189° |
| 2026-04-25 09:49 | 43.34764 | 77.01464 | 2226 ft | 12 kts | 197° |
| 2026-04-25 09:49 | 43.34683 | 77.01443 | 2224 ft | 11 kts | 169° |
| 2026-04-25 09:50 | 43.34617 | 77.01465 | 2227 ft | 9 kts | 173° |
| 2026-04-25 09:50 | 43.34573 | 77.01479 | 2227 ft | 10 kts | 160° |
| 2026-04-25 09:50 | 43.34484 | 77.01532 | 2227 ft | 11 kts | 156° |
| 2026-04-25 09:50 | 43.34411 | 77.01576 | 2227 ft | 12 kts | 156° |
| 2026-04-25 09:51 | 43.34359 | 77.01608 | 2225 ft | 12 kts | 156° |
| 2026-04-25 09:51 | 43.34277 | 77.01658 | 2231 ft | 0 kts | 156° |
| 2026-04-25 09:51 | 43.34273 | 77.01661 | 2228 ft | 3 kts | 156° |
| 2026-04-25 09:51 | 43.34261 | 77.01668 | 2230 ft | 0 kts | 156° |
| 2026-04-25 09:53 | 43.34255 | 77.01671 | 2233 ft | 7 kts | 156° |
| 2026-04-25 09:54 | 43.34204 | 77.01706 | 2231 ft | 7 kts | 147° |
| 2026-04-25 09:54 | 43.34176 | 77.01757 | 2234 ft | 7 kts | 112° |
| 2026-04-25 09:54 | 43.34181 | 77.01838 | 2236 ft | 10 kts | 66° |
| 2026-04-25 09:54 | 43.34209 | 77.01901 | 2236 ft | 0 kts | 53° |
| 2026-04-25 09:55 | 43.34243 | 77.01966 | 2236 ft | 31 kts | 54° |
| 2026-04-25 09:55 | 43.34477 | 77.02445 | 2239 ft | 89 kts | 56° |
| 2026-04-25 09:56 | 43.34920 | 77.03345 | 2237 ft | 136 kts | 56° |
| 2026-04-25 09:56 | 43.35521 | 77.04569 | 2239 ft | 170 kts | 57° |
| 2026-04-25 09:56 | 43.36202 | 77.05982 | 2704 ft | 176 kts | 56° |
| 2026-04-25 09:56 | 43.36888 | 77.07365 | 3372 ft | 179 kts | 55° |
| 2026-04-25 09:57 | 43.37669 | 77.08839 | 3803 ft | 203 kts | 54° |
| 2026-04-25 09:57 | 43.38556 | 77.10501 | 4220 ft | 230 kts | 54° |
| 2026-04-25 09:57 | 43.39555 | 77.12364 | 4744 ft | 254 kts | 51° |
| 2026-04-25 09:57 | 43.40914 | 77.13944 | 5588 ft | 263 kts | 23° |
| 2026-04-25 09:58 | 43.42708 | 77.14342 | 6499 ft | 266 kts | 350° |
| 2026-04-25 09:58 | 43.44533 | 77.13773 | 7402 ft | 270 kts | 342° |
| 2026-04-25 09:58 | 43.46376 | 77.13076 | 8241 ft | 279 kts | 342° |
| 2026-04-25 09:58 | 43.48260 | 77.12375 | 8751 ft | 284 kts | 342° |
| 2026-04-25 09:59 | 43.50180 | 77.11673 | 8946 ft | 284 kts | 342° |
| 2026-04-25 09:59 | 43.52038 | 77.10765 | 8960 ft | 281 kts | 328° |
| 2026-04-25 09:59 | 43.53476 | 77.09063 | 8960 ft | 275 kts | 303° |
| 2026-04-25 09:59 | 43.54209 | 77.06686 | 9199 ft | 271 kts | 279° |
| 2026-04-25 10:00 | 43.54397 | 77.04067 | 9825 ft | 276 kts | 272° |
| 2026-04-25 10:00 | 43.54489 | 77.01387 | 10549 ft | 287 kts | 272° |
| 2026-04-25 10:00 | 43.54601 | 76.98536 | 10952 ft | 307 kts | 275° |
| 2026-04-25 10:00 | 43.55071 | 76.95657 | 11513 ft | 319 kts | 291° |
| 2026-04-25 10:01 | 43.56248 | 76.93020 | 12309 ft | 326 kts | 309° |
| 2026-04-25 10:01 | 43.57816 | 76.90685 | 13083 ft | 332 kts | 313° |
| 2026-04-25 10:01 | 43.59429 | 76.88421 | 13865 ft | 337 kts | 313° |
| 2026-04-25 10:01 | 43.61087 | 76.86090 | 14594 ft | 341 kts | 313° |
| 2026-04-25 10:02 | 43.62751 | 76.83735 | 15305 ft | 345 kts | 313° |
| 2026-04-25 10:02 | 43.64447 | 76.81322 | 16075 ft | 348 kts | 313° |
| 2026-04-25 10:02 | 43.66117 | 76.78939 | 16847 ft | 351 kts | 313° |
| 2026-04-25 10:02 | 43.67820 | 76.76504 | 17642 ft | 353 kts | 313° |
| 2026-04-25 10:03 | 43.69538 | 76.74042 | 18396 ft | 357 kts | 313° |
| 2026-04-25 10:03 | 43.71274 | 76.71551 | 19056 ft | 360 kts | 313° |
| 2026-04-25 10:03 | 43.73023 | 76.69039 | 19704 ft | 363 kts | 313° |
| 2026-04-25 10:03 | 43.74782 | 76.66512 | 20366 ft | 366 kts | 313° |
| 2026-04-25 10:04 | 43.76510 | 76.63956 | 20994 ft | 369 kts | 311° |
| 2026-04-25 10:04 | 43.78234 | 76.61296 | 21619 ft | 372 kts | 311° |
| 2026-04-25 10:04 | 43.79971 | 76.58613 | 22248 ft | 375 kts | 311° |
| 2026-04-25 10:04 | 43.81701 | 76.55949 | 22842 ft | 378 kts | 311° |
| 2026-04-25 10:05 | 43.83472 | 76.53228 | 23457 ft | 381 kts | 311° |
| 2026-04-25 10:05 | 43.85319 | 76.50526 | 23978 ft | 385 kts | 316° |
| 2026-04-25 10:05 | 43.87466 | 76.48363 | 24442 ft | 389 kts | 331° |
| 2026-04-25 10:05 | 43.90026 | 76.47072 | 24928 ft | 395 kts | 347° |
| 2026-04-25 10:06 | 43.92786 | 76.46846 | 25391 ft | 402 kts | 2° |
| 2026-04-25 10:06 | 43.95531 | 76.47754 | 25845 ft | 411 kts | 19° |
| 2026-04-25 10:06 | 43.98050 | 76.49717 | 26297 ft | 418 kts | 30° |
| 2026-04-25 10:06 | 44.00579 | 76.51637 | 26702 ft | 418 kts | 20° |
| 2026-04-25 10:07 | 44.03273 | 76.53197 | 27138 ft | 420 kts | 18° |
| 2026-04-25 10:07 | 44.05994 | 76.54716 | 27582 ft | 422 kts | 18° |
| 2026-04-25 10:07 | 44.08712 | 76.56234 | 27991 ft | 425 kts | 18° |
| 2026-04-25 10:07 | 44.11467 | 76.57759 | 28410 ft | 427 kts | 17° |
| 2026-04-25 10:08 | 44.14316 | 76.58845 | 28783 ft | 424 kts | 4° |
| 2026-04-25 10:08 | 44.17253 | 76.58942 | 29181 ft | 419 kts | 350° |
| 2026-04-25 10:08 | 44.20124 | 76.58200 | 29582 ft | 419 kts | 344° |
| 2026-04-25 10:08 | 44.22961 | 76.57251 | 30002 ft | 420 kts | 343° |
| 2026-04-25 10:09 | 44.25808 | 76.56280 | 30384 ft | 421 kts | 343° |
| 2026-04-25 10:09 | 44.28632 | 76.55321 | 30674 ft | 424 kts | 343° |
| 2026-04-25 10:09 | 44.31519 | 76.54344 | 30956 ft | 427 kts | 343° |
| 2026-04-25 10:09 | 44.34373 | 76.53199 | 31244 ft | 428 kts | 338° |
| 2026-04-25 10:10 | 44.36235 | 76.52263 | 31439 ft | 428 kts | 336° |
| 2026-04-25 10:10 | 44.37957 | 76.51327 | 31627 ft | 429 kts | 335° |
| 2026-04-25 10:10 | 44.40729 | 76.49730 | 31910 ft | 431 kts | 334° |
| 2026-04-25 10:10 | 44.43493 | 76.48083 | 32197 ft | 433 kts | 334° |
| 2026-04-25 10:11 | 44.46276 | 76.46412 | 32489 ft | 435 kts | 334° |
| 2026-04-25 10:11 | 44.49055 | 76.44750 | 32879 ft | 434 kts | 334° |
| 2026-04-25 10:11 | 44.51803 | 76.43118 | 33276 ft | 434 kts | 334° |
| 2026-04-25 10:11 | 44.54580 | 76.41478 | 33626 ft | 433 kts | 334° |
| 2026-04-25 10:12 | 44.57364 | 76.39840 | 34004 ft | 433 kts | 334° |
| 2026-04-25 10:12 | 44.60131 | 76.38214 | 34382 ft | 431 kts | 334° |
| 2026-04-25 10:12 | 44.65684 | 76.34949 | 34896 ft | 432 kts | 334° |
| 2026-04-25 10:13 | 44.68466 | 76.33309 | 35150 ft | 433 kts | 334° |
| 2026-04-25 10:13 | 44.71209 | 76.31691 | 35408 ft | 433 kts | 334° |
| 2026-04-25 10:13 | 44.73999 | 76.30043 | 35655 ft | 434 kts | 334° |
| 2026-04-25 10:13 | 44.76787 | 76.28394 | 35939 ft | 434 kts | 334° |
| 2026-04-25 10:14 | 44.79576 | 76.26744 | 36232 ft | 433 kts | 334° |
| 2026-04-25 10:14 | 44.82365 | 76.25091 | 36478 ft | 434 kts | 333° |
| 2026-04-25 10:14 | 44.85146 | 76.23441 | 36698 ft | 435 kts | 333° |
| 2026-04-25 10:14 | 44.87904 | 76.21803 | 36944 ft | 435 kts | 333° |
| 2026-04-25 10:15 | 44.90698 | 76.20142 | 37178 ft | 436 kts | 333° |
| 2026-04-25 10:15 | 44.93500 | 76.18475 | 37423 ft | 436 kts | 333° |
| 2026-04-25 10:15 | 44.96290 | 76.16812 | 37691 ft | 436 kts | 333° |
| 2026-04-25 10:15 | 44.99093 | 76.15141 | 37931 ft | 436 kts | 333° |
| 2026-04-25 10:16 | 45.01894 | 76.13469 | 38159 ft | 437 kts | 333° |
| 2026-04-25 10:16 | 45.04698 | 76.11793 | 38389 ft | 437 kts | 333° |
| 2026-04-25 10:16 | 45.07503 | 76.10115 | 38608 ft | 437 kts | 333° |
| 2026-04-25 10:16 | 45.10304 | 76.08437 | 38802 ft | 438 kts | 333° |
| 2026-04-25 10:17 | 45.13078 | 76.06774 | 38987 ft | 438 kts | 333° |
| 2026-04-25 10:17 | 45.15883 | 76.05090 | 39158 ft | 438 kts | 333° |
| 2026-04-25 10:17 | 45.18694 | 76.03401 | 39320 ft | 438 kts | 333° |
| 2026-04-25 10:17 | 45.21513 | 76.01706 | 39484 ft | 439 kts | 333° |
| 2026-04-25 10:18 | 45.24330 | 76.00010 | 39639 ft | 439 kts | 333° |
| 2026-04-25 10:18 | 45.27148 | 75.98311 | 39796 ft | 439 kts | 333° |
| 2026-04-25 10:18 | 45.29931 | 75.96632 | 39945 ft | 440 kts | 333° |
| 2026-04-25 10:18 | 45.32763 | 75.94921 | 40058 ft | 441 kts | 333° |
| 2026-04-25 10:19 | 45.35603 | 75.93202 | 40071 ft | 445 kts | 333° |
| 2026-04-25 10:19 | 45.41316 | 75.89739 | 40077 ft | 448 kts | 333° |
| 2026-04-25 10:20 | 45.47038 | 75.86269 | 40081 ft | 446 kts | 333° |
| 2026-04-25 10:20 | 45.52765 | 75.82787 | 40080 ft | 446 kts | 332° |
| 2026-04-25 10:21 | 45.58447 | 75.79322 | 40079 ft | 446 kts | 332° |
| 2026-04-25 10:21 | 45.64162 | 75.75829 | 40083 ft | 446 kts | 332° |
| 2026-04-25 10:22 | 45.69821 | 75.72362 | 40089 ft | 446 kts | 332° |
| 2026-04-25 10:22 | 45.75527 | 75.68866 | 40087 ft | 446 kts | 332° |
| 2026-04-25 10:23 | 45.81226 | 75.65361 | 40091 ft | 446 kts | 332° |
| 2026-04-25 10:23 | 45.86931 | 75.61843 | 40095 ft | 446 kts | 332° |
| 2026-04-25 10:24 | 45.92611 | 75.58334 | 40093 ft | 446 kts | 332° |
| 2026-04-25 10:24 | 45.98332 | 75.54793 | 40095 ft | 446 kts | 332° |
| 2026-04-25 10:25 | 46.04030 | 75.51259 | 40101 ft | 446 kts | 332° |
| 2026-04-25 10:25 | 46.09737 | 75.47710 | 40109 ft | 447 kts | 332° |
| 2026-04-25 10:26 | 46.15456 | 75.44147 | 40093 ft | 448 kts | 332° |
| 2026-04-25 10:26 | 46.21171 | 75.40578 | 40098 ft | 448 kts | 332° |
| 2026-04-25 10:27 | 46.26892 | 75.37019 | 40112 ft | 448 kts | 333° |
| 2026-04-25 10:27 | 46.32621 | 75.33458 | 40108 ft | 448 kts | 333° |
| 2026-04-25 10:28 | 46.38302 | 75.29917 | 40111 ft | 448 kts | 333° |
| 2026-04-25 10:28 | 46.44022 | 75.26343 | 40120 ft | 448 kts | 333° |
| 2026-04-25 10:29 | 46.49750 | 75.22757 | 40120 ft | 448 kts | 333° |
| 2026-04-25 10:29 | 46.55461 | 75.19171 | 40121 ft | 448 kts | 333° |
| 2026-04-25 10:30 | 46.61179 | 75.15574 | 40126 ft | 448 kts | 332° |
| 2026-04-25 10:30 | 46.66903 | 75.11964 | 40129 ft | 448 kts | 333° |
| 2026-04-25 10:31 | 46.72592 | 75.08369 | 40128 ft | 448 kts | 332° |
| 2026-04-25 10:31 | 46.78310 | 75.04747 | 40129 ft | 448 kts | 332° |
| 2026-04-25 10:32 | 46.84028 | 75.01116 | 40134 ft | 448 kts | 333° |
| 2026-04-25 10:32 | 46.89745 | 74.97490 | 40121 ft | 448 kts | 333° |
| 2026-04-25 10:33 | 46.95595 | 74.94199 | 40124 ft | 450 kts | 336° |
| 2026-04-25 10:33 | 47.01474 | 74.91073 | 40131 ft | 450 kts | 336° |
| 2026-04-25 10:34 | 47.07361 | 74.87886 | 40118 ft | 450 kts | 335° |
| 2026-04-25 10:34 | 47.13222 | 74.84654 | 40116 ft | 449 kts | 335° |
| 2026-04-25 10:35 | 47.19047 | 74.81417 | 40116 ft | 449 kts | 335° |
| 2026-04-25 10:35 | 47.24912 | 74.78149 | 40115 ft | 450 kts | 335° |
| 2026-04-25 10:36 | 47.30740 | 74.74898 | 40109 ft | 450 kts | 335° |
| 2026-04-25 10:36 | 47.36598 | 74.71623 | 40111 ft | 450 kts | 335° |
| 2026-04-25 10:37 | 47.42471 | 74.68332 | 40117 ft | 450 kts | 335° |
| 2026-04-25 10:37 | 47.48289 | 74.65063 | 40110 ft | 450 kts | 335° |
| 2026-04-25 10:38 | 47.54164 | 74.61756 | 40112 ft | 450 kts | 335° |
| 2026-04-25 10:38 | 47.60011 | 74.58481 | 40113 ft | 450 kts | 335° |
| 2026-04-25 10:39 | 47.64884 | 74.55749 | 40111 ft | 451 kts | 335° |
| 2026-04-25 10:39 | 47.70753 | 74.52450 | 40110 ft | 451 kts | 335° |
| 2026-04-25 10:40 | 47.76632 | 74.49138 | 40106 ft | 451 kts | 335° |
| 2026-04-25 10:40 | 47.82486 | 74.45832 | 40117 ft | 451 kts | 335° |
| 2026-04-25 10:41 | 47.88374 | 74.42497 | 40107 ft | 451 kts | 335° |
| 2026-04-25 10:41 | 47.94234 | 74.39170 | 40104 ft | 452 kts | 335° |
| 2026-04-25 10:42 | 48.00115 | 74.35824 | 40102 ft | 452 kts | 335° |
| 2026-04-25 10:42 | 48.05953 | 74.32495 | 40112 ft | 449 kts | 335° |
| 2026-04-25 10:43 | 48.11785 | 74.29162 | 40109 ft | 447 kts | 335° |
| 2026-04-25 10:43 | 48.17592 | 74.25856 | 40093 ft | 447 kts | 335° |
| 2026-04-25 10:44 | 48.23432 | 74.22552 | 40112 ft | 447 kts | 335° |
| 2026-04-25 10:44 | 48.29231 | 74.19264 | 40097 ft | 447 kts | 335° |
| 2026-04-25 10:45 | 48.35075 | 74.15940 | 40094 ft | 447 kts | 335° |
| 2026-04-25 10:45 | 48.40869 | 74.12635 | 40105 ft | 447 kts | 335° |
| 2026-04-25 10:46 | 48.46700 | 74.09301 | 40098 ft | 447 kts | 335° |
| 2026-04-25 10:46 | 48.52529 | 74.05958 | 40098 ft | 447 kts | 335° |
| 2026-04-25 10:47 | 48.58326 | 74.02627 | 40094 ft | 447 kts | 335° |
| 2026-04-25 10:47 | 48.64152 | 73.99271 | 40108 ft | 448 kts | 335° |
| 2026-04-25 10:48 | 48.69950 | 73.95922 | 40097 ft | 448 kts | 335° |
| 2026-04-25 10:48 | 48.75783 | 73.92545 | 40087 ft | 448 kts | 335° |
| 2026-04-25 10:49 | 48.81617 | 73.89160 | 40089 ft | 448 kts | 335° |
| 2026-04-25 10:49 | 48.87399 | 73.85797 | 40093 ft | 448 kts | 335° |
| 2026-04-25 10:50 | 48.93238 | 73.82392 | 40086 ft | 448 kts | 335° |
| 2026-04-25 10:50 | 48.99068 | 73.78986 | 40085 ft | 448 kts | 335° |
| 2026-04-25 10:51 | 49.04856 | 73.75592 | 40097 ft | 448 kts | 334° |
| 2026-04-25 10:51 | 49.10674 | 73.72151 | 40078 ft | 448 kts | 334° |
| 2026-04-25 10:52 | 49.16505 | 73.68695 | 40081 ft | 449 kts | 334° |
| 2026-04-25 10:52 | 49.22310 | 73.65248 | 40068 ft | 449 kts | 334° |
| 2026-04-25 10:52 | 49.25216 | 73.63521 | 39866 ft | 446 kts | 334° |
| 2026-04-25 10:53 | 49.28099 | 73.61807 | 39645 ft | 441 kts | 334° |
| 2026-04-25 10:53 | 49.30949 | 73.60110 | 39427 ft | 439 kts | 334° |
| 2026-04-25 10:53 | 49.33773 | 73.58424 | 39191 ft | 440 kts | 334° |
| 2026-04-25 10:53 | 49.36631 | 73.56715 | 38970 ft | 440 kts | 334° |
| 2026-04-25 10:54 | 49.39486 | 73.55005 | 38736 ft | 439 kts | 334° |
| 2026-04-25 10:54 | 49.41380 | 73.53870 | 38553 ft | 439 kts | 334° |
| 2026-04-25 10:54 | 49.45188 | 73.51586 | 38164 ft | 438 kts | 334° |
| 2026-04-25 10:54 | 49.47994 | 73.49901 | 37904 ft | 438 kts | 334° |
| 2026-04-25 10:55 | 49.50831 | 73.48195 | 37620 ft | 439 kts | 334° |
| 2026-04-25 10:55 | 49.53696 | 73.46469 | 37347 ft | 440 kts | 334° |
| 2026-04-25 10:55 | 49.56549 | 73.44750 | 37086 ft | 439 kts | 334° |
| 2026-04-25 10:55 | 49.59398 | 73.43032 | 36811 ft | 439 kts | 334° |
| 2026-04-25 10:56 | 49.62239 | 73.41316 | 36541 ft | 438 kts | 333° |
| 2026-04-25 10:56 | 49.65025 | 73.39584 | 36289 ft | 436 kts | 330° |
| 2026-04-25 10:56 | 49.67657 | 73.37321 | 36041 ft | 429 kts | 320° |
| 2026-04-25 10:56 | 49.69946 | 73.34390 | 35786 ft | 422 kts | 310° |
| 2026-04-25 10:57 | 49.71824 | 73.30996 | 35538 ft | 418 kts | 304° |
| 2026-04-25 10:57 | 49.73603 | 73.27425 | 35280 ft | 417 kts | 303° |
| 2026-04-25 10:57 | 49.75351 | 73.23864 | 34838 ft | 414 kts | 303° |
| 2026-04-25 10:57 | 49.77075 | 73.20335 | 34272 ft | 414 kts | 303° |
| 2026-04-25 10:58 | 49.78807 | 73.16784 | 33580 ft | 415 kts | 303° |
| 2026-04-25 10:58 | 49.80551 | 73.13201 | 32915 ft | 415 kts | 303° |
| 2026-04-25 10:58 | 49.82282 | 73.09642 | 32274 ft | 414 kts | 303° |
| 2026-04-25 10:58 | 49.84019 | 73.06064 | 31602 ft | 415 kts | 303° |
| 2026-04-25 10:59 | 49.85758 | 73.02478 | 31059 ft | 414 kts | 303° |
| 2026-04-25 10:59 | 49.87483 | 72.98921 | 30579 ft | 410 kts | 303° |
| 2026-04-25 10:59 | 49.89174 | 72.95427 | 30094 ft | 407 kts | 303° |
| 2026-04-25 10:59 | 49.90864 | 72.91928 | 29577 ft | 403 kts | 303° |
| 2026-04-25 11:00 | 49.92541 | 72.88454 | 29088 ft | 399 kts | 302° |
| 2026-04-25 11:00 | 49.94192 | 72.85027 | 28596 ft | 395 kts | 302° |
| 2026-04-25 11:00 | 49.95843 | 72.81596 | 28128 ft | 392 kts | 302° |
| 2026-04-25 11:00 | 49.97446 | 72.78260 | 27674 ft | 388 kts | 302° |
| 2026-04-25 11:01 | 49.99060 | 72.74898 | 27213 ft | 385 kts | 302° |
| 2026-04-25 11:01 | 50.00658 | 72.71563 | 26723 ft | 383 kts | 302° |
| 2026-04-25 11:01 | 50.02241 | 72.68254 | 26250 ft | 380 kts | 302° |
| 2026-04-25 11:01 | 50.03801 | 72.64992 | 25808 ft | 378 kts | 302° |
| 2026-04-25 11:02 | 50.05366 | 72.61715 | 25338 ft | 377 kts | 302° |
| 2026-04-25 11:02 | 50.06928 | 72.58438 | 24866 ft | 375 kts | 302° |
| 2026-04-25 11:02 | 50.08482 | 72.55175 | 24379 ft | 374 kts | 302° |
| 2026-04-25 11:02 | 50.10033 | 72.51916 | 23939 ft | 372 kts | 302° |
| 2026-04-25 11:03 | 50.11555 | 72.48712 | 23471 ft | 371 kts | 302° |
| 2026-04-25 11:03 | 50.13094 | 72.45469 | 22959 ft | 369 kts | 302° |
| 2026-04-25 11:03 | 50.14616 | 72.42259 | 22498 ft | 366 kts | 302° |
| 2026-04-25 11:03 | 50.16121 | 72.39081 | 22059 ft | 363 kts | 302° |
| 2026-04-25 11:04 | 50.17615 | 72.35922 | 21624 ft | 360 kts | 302° |
| 2026-04-25 11:04 | 50.19100 | 72.32778 | 21158 ft | 358 kts | 302° |
| 2026-04-25 11:04 | 50.20551 | 72.29702 | 20727 ft | 356 kts | 302° |
| 2026-04-25 11:04 | 50.21542 | 72.27601 | 20425 ft | 354 kts | 302° |
| 2026-04-25 11:05 | 50.23490 | 72.23518 | 19836 ft | 352 kts | 303° |
| 2026-04-25 11:05 | 50.24989 | 72.20484 | 19372 ft | 352 kts | 303° |
| 2026-04-25 11:05 | 50.26483 | 72.17458 | 18923 ft | 351 kts | 303° |
| 2026-04-25 11:05 | 50.27972 | 72.14434 | 18464 ft | 350 kts | 303° |
| 2026-04-25 11:06 | 50.29437 | 72.11450 | 17970 ft | 350 kts | 303° |
| 2026-04-25 11:06 | 50.30917 | 72.08428 | 17474 ft | 349 kts | 303° |
| 2026-04-25 11:06 | 50.32390 | 72.05417 | 17007 ft | 347 kts | 303° |
| 2026-04-25 11:06 | 50.33853 | 72.02419 | 16525 ft | 346 kts | 303° |
| 2026-04-25 11:07 | 50.35313 | 71.99426 | 16065 ft | 344 kts | 303° |
| 2026-04-25 11:07 | 50.36766 | 71.96441 | 15586 ft | 344 kts | 303° |
| 2026-04-25 11:07 | 50.38206 | 71.93480 | 15112 ft | 343 kts | 303° |
| 2026-04-25 11:07 | 50.39653 | 71.90504 | 14662 ft | 343 kts | 302° |
| 2026-04-25 11:08 | 50.41099 | 71.87523 | 14188 ft | 342 kts | 302° |
| 2026-04-25 11:08 | 50.42542 | 71.84546 | 13701 ft | 342 kts | 302° |
| 2026-04-25 11:08 | 50.43980 | 71.81576 | 13221 ft | 341 kts | 302° |
| 2026-04-25 11:08 | 50.45384 | 71.78680 | 13037 ft | 330 kts | 302° |
| 2026-04-25 11:09 | 50.46781 | 71.75794 | 12556 ft | 330 kts | 302° |
| 2026-04-25 11:09 | 50.48156 | 71.72957 | 12116 ft | 329 kts | 302° |
| 2026-04-25 11:09 | 50.49531 | 71.70096 | 11642 ft | 328 kts | 302° |
| 2026-04-25 11:09 | 50.50905 | 71.67236 | 11244 ft | 326 kts | 302° |
| 2026-04-25 11:10 | 50.52257 | 71.64425 | 11069 ft | 317 kts | 302° |
| 2026-04-25 11:10 | 50.53130 | 71.62613 | 10976 ft | 309 kts | 302° |
| 2026-04-25 11:10 | 50.54824 | 71.59091 | 10818 ft | 297 kts | 301° |
| 2026-04-25 11:10 | 50.56065 | 71.56502 | 10499 ft | 295 kts | 301° |
| 2026-04-25 11:11 | 50.57291 | 71.53936 | 10096 ft | 297 kts | 301° |
| 2026-04-25 11:11 | 50.58549 | 71.51298 | 9554 ft | 302 kts | 301° |
| 2026-04-25 11:11 | 50.59816 | 71.48641 | 9018 ft | 305 kts | 301° |
| 2026-04-25 11:11 | 50.61082 | 71.45992 | 8708 ft | 300 kts | 301° |
| 2026-04-25 11:12 | 50.62309 | 71.43441 | 8573 ft | 289 kts | 301° |
| 2026-04-25 11:12 | 50.63508 | 71.40937 | 8345 ft | 283 kts | 301° |
| 2026-04-25 11:12 | 50.64685 | 71.38458 | 8001 ft | 281 kts | 300° |
| 2026-04-25 11:12 | 50.65858 | 71.35983 | 7671 ft | 281 kts | 301° |
| 2026-04-25 11:13 | 50.67089 | 71.33580 | 7296 ft | 285 kts | 309° |
| 2026-04-25 11:13 | 50.68696 | 71.31736 | 6945 ft | 293 kts | 325° |
| 2026-04-25 11:13 | 50.70503 | 71.30229 | 6643 ft | 293 kts | 327° |
| 2026-04-25 11:13 | 50.72327 | 71.28764 | 6248 ft | 294 kts | 327° |
| 2026-04-25 11:14 | 50.74163 | 71.27279 | 5639 ft | 296 kts | 328° |
| 2026-04-25 11:14 | 50.75972 | 71.25813 | 5017 ft | 287 kts | 328° |
| 2026-04-25 11:14 | 50.77702 | 71.24408 | 4611 ft | 274 kts | 327° |
| 2026-04-25 11:14 | 50.79354 | 71.23062 | 4493 ft | 262 kts | 326° |
| 2026-04-25 11:15 | 50.80939 | 71.21763 | 4424 ft | 251 kts | 326° |
| 2026-04-25 11:15 | 50.82510 | 71.20602 | 4288 ft | 247 kts | 336° |
| 2026-04-25 11:15 | 50.84217 | 71.20393 | 4162 ft | 247 kts | 8° |
| 2026-04-25 11:15 | 50.85814 | 71.21279 | 4052 ft | 241 kts | 32° |
| 2026-04-25 11:16 | 50.88110 | 71.24625 | 4046 ft | 206 kts | 48° |
| 2026-04-25 11:16 | 50.89070 | 71.26132 | 3990 ft | 189 kts | 47° |
| 2026-04-25 11:16 | 50.89974 | 71.27530 | 4003 ft | 173 kts | 47° |
| 2026-04-25 11:17 | 50.90817 | 71.28829 | 3966 ft | 167 kts | 48° |
| 2026-04-25 11:17 | 50.91653 | 71.30123 | 3778 ft | 167 kts | 49° |
| 2026-04-25 11:17 | 50.92469 | 71.31391 | 3542 ft | 164 kts | 49° |
| 2026-04-25 11:17 | 50.93282 | 71.32657 | 3330 ft | 162 kts | 47° |
| 2026-04-25 11:18 | 50.94082 | 71.33899 | 3096 ft | 159 kts | 49° |
| 2026-04-25 11:18 | 50.94863 | 71.35115 | 2889 ft | 159 kts | 49° |
| 2026-04-25 11:18 | 50.95657 | 71.36351 | 2673 ft | 160 kts | 48° |
| 2026-04-25 11:18 | 50.96457 | 71.37596 | 2473 ft | 162 kts | 49° |
| 2026-04-25 11:19 | 50.97262 | 71.38849 | 2248 ft | 162 kts | 48° |
| 2026-04-25 11:19 | 50.98060 | 71.40091 | 2041 ft | 159 kts | 48° |
| 2026-04-25 11:19 | 50.98818 | 71.41273 | 1836 ft | 151 kts | 49° |
| 2026-04-25 11:19 | 50.99551 | 71.42415 | 1635 ft | 141 kts | 46° |
| 2026-04-25 11:20 | 51.00234 | 71.43478 | 1450 ft | 134 kts | 46° |
| 2026-04-25 11:20 | 51.00885 | 71.44496 | 1275 ft | 129 kts | 46° |
| 2026-04-25 11:20 | 51.01507 | 71.45453 | 1165 ft | 108 kts | 45° |
| 2026-04-25 11:20 | 51.01912 | 71.46086 | 1168 ft | 56 kts | 45° |
| 2026-04-25 11:21 | 51.02153 | 71.46456 | 1164 ft | 47 kts | 44° |
| 2026-04-25 11:21 | 51.02368 | 71.46790 | 1168 ft | 28 kts | 45° |
| 2026-04-25 11:21 | 51.02470 | 71.46933 | 1168 ft | 18 kts | 22° |
| 2026-04-25 11:21 | 51.02568 | 71.46846 | 1168 ft | 13 kts | 315° |
| 2026-04-25 11:22 | 51.02592 | 71.46806 | 1166 ft | 0 kts | 314° |
| 2026-04-25 11:23 | 51.02594 | 71.46803 | 1166 ft | 4 kts | 314° |
| 2026-04-25 11:23 | 51.02639 | 71.46731 | 1165 ft | 11 kts | 315° |
| 2026-04-25 11:24 | 51.02649 | 71.46715 | 1165 ft | 0 kts | 315° |
| 2026-04-25 11:25 | 51.02662 | 71.46695 | 1164 ft | 5 kts | 315° |
| 2026-04-25 11:25 | 51.02689 | 71.46649 | 1164 ft | 7 kts | 310° |
| 2026-04-25 11:25 | 51.02699 | 71.46624 | 1164 ft | 0 kts | 297° |
| 2026-04-25 11:26 | 51.02704 | 71.46608 | 1165 ft | 4 kts | 296° |
| 2026-04-25 11:26 | 51.02720 | 71.46556 | 1163 ft | 7 kts | 298° |
| 2026-04-25 11:26 | 51.02759 | 71.46487 | 1165 ft | 0 kts | 315° |
| 2026-04-25 11:27 | 51.02764 | 71.46480 | 1165 ft | 3 kts | 315° |
| 2026-04-25 11:27 | 51.02770 | 71.46469 | 1163 ft | 2 kts | 315° |
| 2026-04-25 11:27 | 51.02776 | 71.46460 | 1163 ft | 0 kts | 315° |
| 2026-04-25 11:27 | 51.02777 | 71.46459 | 1163 ft | 0 kts | 315° |
| 2026-04-25 12:13 | 51.02777 | 71.46458 | 1168 ft | 0 kts | 316° |